Time;durP1;ratioP1;P1;durP2;ratioP2;P2;SDS_P1;SDS_P2;PMS_P1;PMS_P2;Temp;Humidity;BMP_temperature;BMP_pressure;BME280_temperature;BME280_humidity;BME280_pressure;Samples;Min_cycle;Max_cycle;Signal;HPM_P1;HPM_P2
2023/07/21 10:06:06;;;;;;;9.32;3.55;;;;;;;29.41;41.88;99507.09;4500197;31;861861;-74
2023/07/21 10:08:36;;;;;;;8.75;3.30;;;;;;;29.41;41.88;99507.09;4485879;31;32995;-74
2023/07/21 10:11:05;;;;;;;5.72;3.10;;;;;;;29.86;37.00;99502.75;4501279;31;33685;-73
2023/07/21 10:13:32;;;;;;;7.77;3.23;;;;;;;30.34;35.53;99501.75;4488014;31;34239;-75
2023/07/21 10:16:06;;;;;;;6.20;2.90;;;;;;;30.69;35.05;99502.06;4497134;31;33904;-74
2023/07/21 10:18:33;;;;;;;8.02;3.37;;;;;;;30.71;35.99;99499.31;4495518;31;33629;-75
2023/07/21 10:21:03;;;;;;;6.35;2.70;;;;;;;30.91;35.92;99493.16;4501914;31;33663;-75
2023/07/21 10:23:38;;;;;;;8.23;2.87;;;;;;;30.92;34.12;99490.41;4481063;31;33554;-75
2023/07/21 10:26:09;;;;;;;6.90;3.47;;;;;;;31.56;33.36;99493.78;4495852;31;33719;-75
2023/07/21 10:28:44;;;;;;;8.07;4.30;;;;;;;31.37;33.95;99491.09;4492067;31;32298;-75
2023/07/21 10:31:22;;;;;;;5.50;3.08;;;;;;;31.59;34.06;99496.34;4489310;31;31585;-74
2023/07/21 10:34:10;;;;;;;6.10;2.83;;;;;;;31.74;33.13;99492.09;4502106;31;33763;-75
2023/07/21 10:36:48;;;;;;;5.28;2.80;;;;;;;31.80;32.34;99497.16;4500156;31;32950;-75
2023/07/21 10:39:19;;;;;;;6.93;3.20;;;;;;;32.17;30.85;99482.00;4503122;31;32275;-74
2023/07/21 10:41:48;;;;;;;6.43;3.42;;;;;;;32.59;31.89;99480.81;4496556;31;33579;-74
2023/07/21 10:44:16;;;;;;;7.32;3.10;;;;;;;32.50;32.68;99483.91;4498862;31;34686;-75
2023/07/21 10:46:47;;;;;;;5.82;2.80;;;;;;;32.66;30.18;99471.47;4480342;32;32933;-75
2023/07/21 10:49:17;;;;;;;6.95;3.20;;;;;;;32.29;30.79;99465.28;4473147;32;31430;-75
2023/07/21 10:51:46;;;;;;;7.50;2.80;;;;;;;32.50;30.53;99459.78;4504217;31;33606;-75
2023/07/21 10:54:14;;;;;;;5.70;3.10;;;;;;;32.53;31.01;99455.16;4501287;31;33714;-75
2023/07/21 10:56:49;;;;;;;5.28;2.65;;;;;;;32.22;31.18;99455.84;4495122;31;33263;-75
2023/07/21 10:59:18;;;;;;;5.28;2.58;;;;;;;32.20;29.92;99457.72;4481462;32;32593;-75
2023/07/21 11:01:51;;;;;;;8.25;2.95;;;;;;;32.04;30.37;99454.94;4504186;31;32145;-75
2023/07/21 11:04:20;;;;;;;7.07;2.92;;;;;;;31.98;30.74;99454.34;4497013;31;33517;-75
2023/07/21 11:06:57;;;;;;;6.05;2.60;;;;;;;32.08;31.11;99448.47;4509847;31;32441;-75
2023/07/21 11:09:27;;;;;;;6.93;2.60;;;;;;;32.18;28.84;99446.22;4499149;31;33297;-75
2023/07/21 11:11:57;;;;;;;7.67;2.50;;;;;;;32.10;28.49;99440.34;4507609;31;33462;-75
2023/07/21 11:14:27;;;;;;;6.68;2.30;;;;;;;31.77;28.87;99438.38;4497403;31;33336;-76
2023/07/21 11:17:02;;;;;;;6.78;2.80;;;;;;;31.53;29.83;99443.97;4481302;31;34119;-75
2023/07/21 11:19:33;;;;;;;4.93;2.20;;;;;;;31.48;30.26;99448.66;4498641;31;32481;-76
2023/07/21 11:22:03;;;;;;;6.50;2.50;;;;;;;31.14;30.55;99452.00;4490911;31;33415;-76
2023/07/21 11:24:32;;;;;;;5.55;2.37;;;;;;;31.13;30.44;99459.16;4470142;32;32753;-76
2023/07/21 11:27:05;;;;;;;9.75;2.60;;;;;;;31.04;31.05;99458.69;4485474;31;33270;-75
2023/07/21 11:29:39;;;;;;;8.10;2.67;;;;;;;30.66;32.46;99454.09;4475289;32;32089;-75
2023/07/21 11:32:20;;;;;;;6.50;2.45;;;;;;;30.52;32.75;99461.81;4474920;31;33756;-75
2023/07/21 11:34:56;;;;;;;11.60;2.72;;;;;;;30.47;32.18;99464.69;4483354;31;34817;-76
2023/07/21 11:37:24;;;;;;;5.47;2.40;;;;;;;30.32;33.74;99470.69;4475618;32;33665;-75
2023/07/21 11:39:56;;;;;;;5.40;2.35;;;;;;;30.40;34.34;99473.03;4499014;31;33664;-75
2023/07/21 11:42:24;;;;;;;5.90;2.40;;;;;;;30.28;34.27;99480.59;4487286;31;33621;-75
2023/07/21 11:44:52;;;;;;;5.40;2.63;;;;;;;30.30;33.36;99484.06;4485022;31;34175;-75
2023/07/21 11:47:20;;;;;;;6.07;2.43;;;;;;;30.04;34.41;99476.25;4470991;32;33535;-75
2023/07/21 11:49:49;;;;;;;7.97;2.60;;;;;;;29.93;34.80;99474.87;4495245;31;33765;-76
2023/07/21 11:52:26;;;;;;;23.60;3.47;;;;;;;29.92;35.10;99462.50;4477300;31;34277;-75
2023/07/21 11:54:57;;;;;;;17.80;3.42;;;;;;;30.19;34.62;99456.94;4491769;31;33223;-75
2023/07/21 11:57:26;;;;;;;10.15;2.97;;;;;;;30.16;34.75;99449.06;4475879;32;33322;-76
2023/07/21 11:59:53;;;;;;;14.68;3.10;;;;;;;29.95;37.22;99438.31;4494144;31;33048;-75
2023/07/21 12:02:22;;;;;;;8.30;3.07;;;;;;;30.09;37.62;99444.87;4500534;31;34185;-77
2023/07/21 12:04:52;;;;;;;8.40;2.97;;;;;;;30.58;37.97;99440.19;4473336;31;33654;-77
2023/07/21 12:07:20;;;;;;;9.75;3.40;;;;;;;30.76;39.04;99450.06;4489670;31;33787;-77
2023/07/21 12:09:48;;;;;;;7.43;3.40;;;;;;;30.58;40.32;99456.22;4494565;31;33474;-78
2023/07/21 12:12:16;;;;;;;7.97;3.10;;;;;;;30.65;39.77;99456.81;4494735;31;34765;-77
2023/07/21 12:14:44;;;;;;;6.30;3.17;;;;;;;30.72;39.22;99448.47;4495345;31;34591;-75
2023/07/21 12:17:15;;;;;;;5.95;3.17;;;;;;;30.57;39.27;99433.09;4486097;31;33264;-75
2023/07/21 12:19:47;;;;;;;7.20;3.10;;;;;;;30.76;38.36;99439.38;4483489;31;32794;-75
2023/07/21 12:22:14;;;;;;;7.78;3.10;;;;;;;30.72;37.14;99443.13;4484065;31;33820;-74
2023/07/21 12:24:42;;;;;;;7.13;2.90;;;;;;;30.76;36.35;99444.72;4497892;31;33593;-75
2023/07/21 12:27:09;;;;;;;8.37;3.00;;;;;;;30.94;35.48;99440.38;4499071;31;34259;-76
2023/07/21 12:29:37;;;;;;;6.37;3.00;;;;;;;31.24;34.55;99447.09;4498943;31;33409;-76
2023/07/21 12:32:13;;;;;;;6.18;2.87;;;;;;;31.47;34.92;99438.91;4495504;31;33933;-75
2023/07/21 12:34:40;;;;;;;6.55;2.75;;;;;;;31.62;34.84;99439.09;4484601;31;33853;-75
2023/07/21 12:37:08;;;;;;;7.55;2.50;;;;;;;31.72;33.05;99441.28;4483754;32;33329;-75
2023/07/21 12:39:36;;;;;;;4.45;2.65;;;;;;;31.90;30.49;99439.50;4483796;32;33793;-75
2023/07/21 12:42:04;;;;;;;4.85;2.60;;;;;;;31.63;31.04;99451.56;4493241;31;33780;-74
2023/07/21 12:44:32;;;;;;;6.10;2.53;;;;;;;31.48;31.32;99448.66;4476303;31;33409;-74
2023/07/21 12:47:00;;;;;;;5.37;2.40;;;;;;;31.34;31.63;99440.38;4499397;31;33620;-75
2023/07/21 12:49:27;;;;;;;7.22;2.50;;;;;;;31.25;31.15;99432.78;4499285;31;33162;-75
2023/07/21 12:51:55;;;;;;;6.57;2.40;;;;;;;31.59;30.38;99425.88;4496560;31;33937;-74
2023/07/21 12:54:22;;;;;;;4.90;2.40;;;;;;;31.50;32.88;99425.34;4483508;32;34260;-75
2023/07/21 12:56:50;;;;;;;4.53;2.05;;;;;;;32.03;31.90;99433.59;4489772;31;33299;-75
2023/07/21 12:59:17;;;;;;;6.70;2.40;;;;;;;32.36;30.71;99440.88;4486827;31;33140;-75
2023/07/21 13:01:45;;;;;;;7.93;3.33;;;;;;;32.25;29.54;99439.59;4494228;31;34462;-74
2023/07/21 13:04:15;;;;;;;8.20;3.65;;;;;;;32.21;35.20;99437.16;4490518;31;34610;-75
2023/07/21 13:06:48;;;;;;;6.75;3.80;;;;;;;32.25;37.68;99447.63;4499075;31;32818;-75
2023/07/21 13:09:16;;;;;;;6.35;3.85;;;;;;;31.48;39.45;99443.28;4485138;31;33052;-75
2023/07/21 13:11:43;;;;;;;6.22;3.90;;;;;;;31.25;39.57;99452.37;4491779;31;34526;-75
2023/07/21 13:14:11;;;;;;;8.77;3.60;;;;;;;30.96;39.81;99438.53;4493501;31;34670;-74
2023/07/21 13:16:39;;;;;;;6.30;3.75;;;;;;;30.91;39.55;99437.00;4499429;31;33679;-75
2023/07/21 13:19:07;;;;;;;5.78;3.75;;;;;;;30.75;39.97;99432.31;4498188;31;34152;-75
2023/07/21 13:21:38;;;;;;;6.20;3.85;;;;;;;30.34;41.08;99416.25;4484626;31;33619;-74
2023/07/21 13:24:06;;;;;;;5.50;3.40;;;;;;;30.12;41.63;99420.75;4473487;31;34251;-75
2023/07/21 13:26:34;;;;;;;7.12;3.35;;;;;;;30.09;40.57;99418.19;4497112;31;32981;-75
2023/07/21 13:29:03;;;;;;;6.47;3.35;;;;;;;29.73;39.29;99421.44;4481821;31;33920;-75
2023/07/21 13:31:31;;;;;;;7.20;3.33;;;;;;;29.98;39.28;99413.31;4483491;32;33272;-74
2023/07/21 13:33:59;;;;;;;6.93;3.12;;;;;;;29.75;39.63;99395.56;4470483;32;33649;-74
2023/07/21 13:36:28;;;;;;;6.15;3.10;;;;;;;29.83;39.24;99388.09;4488997;31;33945;-75
2023/07/21 13:38:57;;;;;;;7.30;3.35;;;;;;;29.71;39.68;99393.88;4485582;31;32785;-75
2023/07/21 13:41:25;;;;;;;5.90;2.85;;;;;;;29.86;40.18;99393.28;4492056;31;33589;-75
2023/07/21 13:43:54;;;;;;;5.82;3.10;;;;;;;29.74;41.28;99389.31;4481803;31;33525;-75
2023/07/21 13:46:24;;;;;;;7.43;2.90;;;;;;;29.96;39.50;99377.75;4492457;31;33499;-75
2023/07/21 13:48:52;;;;;;;6.22;2.80;;;;;;;29.97;38.64;99385.72;4484648;31;33060;-75
2023/07/21 13:51:20;;;;;;;5.65;2.87;;;;;;;30.03;38.07;99383.72;4488013;31;33438;-76
2023/07/21 13:53:48;;;;;;;6.32;2.85;;;;;;;30.25;37.65;99373.88;4468704;31;32562;-76
2023/07/21 13:56:17;;;;;;;5.65;2.78;;;;;;;30.32;38.03;99380.69;4488683;31;33580;-75
2023/07/21 13:58:46;;;;;;;7.35;2.70;;;;;;;30.72;36.72;99376.28;4489236;31;33899;-76
2023/07/21 14:01:15;;;;;;;5.70;3.10;;;;;;;30.94;36.22;99373.53;4486256;31;33420;-74
2023/07/21 14:03:45;;;;;;;6.72;3.28;;;;;;;30.81;36.94;99382.13;4494615;31;33865;-75
2023/07/21 14:06:15;;;;;;;5.40;2.92;;;;;;;30.84;36.94;99387.38;4497030;31;33468;-75
2023/07/21 14:08:43;;;;;;;6.20;2.80;;;;;;;30.98;36.98;99381.41;4484018;31;32922;-75
2023/07/21 14:11:11;;;;;;;7.40;3.00;;;;;;;30.67;38.12;99370.25;4498637;31;33750;-75
2023/07/21 14:13:39;;;;;;;6.47;3.10;;;;;;;31.05;38.16;99375.72;4491084;31;33660;-76
2023/07/21 14:16:09;;;;;;;7.05;3.35;;;;;;;30.69;39.22;99362.19;4489039;31;34178;-74
2023/07/21 14:18:39;;;;;;;8.23;3.30;;;;;;;30.71;39.48;99360.31;4492031;31;33141;-75
2023/07/21 14:21:06;;;;;;;7.40;3.33;;;;;;;30.48;40.07;99342.62;4497202;31;32842;-75
2023/07/21 14:23:35;;;;;;;6.95;2.80;;;;;;;30.27;40.64;99344.41;4498628;31;33650;-75
2023/07/21 14:26:03;;;;;;;5.47;2.75;;;;;;;30.04;39.04;99343.59;4498530;31;33479;-75
2023/07/21 14:28:31;;;;;;;5.85;2.83;;;;;;;30.13;38.20;99353.91;4494944;31;33182;-75
2023/07/21 14:31:00;;;;;;;5.90;2.95;;;;;;;30.22;38.01;99355.28;4498632;31;33701;-75
2023/07/21 14:33:28;;;;;;;7.22;2.90;;;;;;;29.79;38.42;99349.09;4494244;31;34211;-74
2023/07/21 14:35:56;;;;;;;4.70;2.78;;;;;;;29.75;38.72;99342.16;4490633;31;34236;-75
2023/07/21 14:38:25;;;;;;;4.60;2.60;;;;;;;29.91;38.37;99337.03;4491609;31;33161;-75
2023/07/21 14:40:53;;;;;;;4.85;2.47;;;;;;;29.98;37.77;99334.06;4482431;31;32137;-75
2023/07/21 14:43:22;;;;;;;5.93;2.53;;;;;;;30.29;36.33;99340.75;4495448;31;33901;-75
2023/07/21 14:45:51;;;;;;;7.43;2.50;;;;;;;30.10;36.12;99338.00;4498096;31;33759;-75
2023/07/21 14:48:19;;;;;;;5.50;2.40;;;;;;;30.24;35.40;99328.53;4483079;31;32575;-75
2023/07/21 14:50:49;;;;;;;5.07;2.42;;;;;;;30.28;35.42;99330.97;4486146;31;34484;-78
2023/07/21 14:53:17;;;;;;;5.68;2.20;;;;;;;30.29;34.25;99322.03;4491624;31;35143;-76
2023/07/21 14:55:45;;;;;;;5.43;2.30;;;;;;;30.33;34.71;99333.50;4485777;31;33245;-79
2023/07/21 14:58:12;;;;;;;4.28;2.10;;;;;;;30.18;36.27;99329.66;4468360;32;32106;-77
2023/07/21 15:00:42;;;;;;;6.50;2.28;;;;;;;29.94;36.32;99327.09;4489445;31;34169;-75
2023/07/21 15:03:10;;;;;;;6.20;2.40;;;;;;;30.22;35.49;99309.88;4486586;31;33587;-75
2023/07/21 15:05:38;;;;;;;8.38;2.60;;;;;;;30.27;36.03;99310.56;4489412;31;33520;-75
2023/07/21 15:08:06;;;;;;;5.15;2.62;;;;;;;30.08;35.81;99306.97;4496033;31;33251;-75
2023/07/21 15:10:34;;;;;;;4.97;2.55;;;;;;;30.10;36.18;99300.59;4479987;31;34495;-75
2023/07/21 15:13:01;;;;;;;5.50;2.75;;;;;;;30.32;36.24;99295.19;4483965;32;34620;-76
2023/07/21 15:15:29;;;;;;;6.95;3.03;;;;;;;30.02;37.40;99301.84;4482608;31;33698;-76
2023/07/21 15:17:58;;;;;;;6.40;2.60;;;;;;;29.84;37.61;99280.34;4483512;31;34070;-75
2023/07/21 15:20:26;;;;;;;5.45;2.55;;;;;;;29.63;37.62;99278.56;4484761;31;33537;-76
2023/07/21 15:22:54;;;;;;;4.97;2.30;;;;;;;30.04;37.19;99267.94;4477721;31;33408;-75
2023/07/21 15:25:21;;;;;;;6.20;2.30;;;;;;;29.82;36.64;99252.84;4491107;31;33679;-76
2023/07/21 15:27:49;;;;;;;5.77;2.53;;;;;;;29.98;35.79;99237.06;4486846;31;33523;-75
2023/07/21 15:30:17;;;;;;;5.87;2.50;;;;;;;29.77;36.72;99238.84;4477225;31;33269;-75
2023/07/21 15:32:46;;;;;;;6.05;2.50;;;;;;;29.94;36.42;99224.75;4494255;31;32292;-76
2023/07/21 15:35:13;;;;;;;6.72;2.30;;;;;;;29.79;37.27;99226.31;4494227;31;34341;-75
2023/07/21 15:37:41;;;;;;;5.62;2.37;;;;;;;29.83;36.98;99222.56;4494007;31;33144;-75
2023/07/21 15:40:11;;;;;;;7.25;2.37;;;;;;;29.56;36.92;99212.09;4492634;31;34626;-76
2023/07/21 15:42:39;;;;;;;5.53;2.40;;;;;;;29.36;37.68;99204.06;4493148;31;32785;-75
2023/07/21 15:45:12;;;;;;;5.12;2.45;;;;;;;29.78;36.98;99197.88;4482917;31;33248;-75
2023/07/21 15:47:40;;;;;;;4.82;2.40;;;;;;;29.78;37.04;99181.84;4481830;31;33255;-76
2023/07/21 15:50:10;;;;;;;5.78;2.40;;;;;;;29.79;36.73;99168.44;4488302;31;33214;-76
2023/07/21 15:52:41;;;;;;;5.05;2.30;;;;;;;29.46;37.11;99175.19;4470097;31;32709;-75
2023/07/21 15:55:11;;;;;;;6.65;2.30;;;;;;;29.32;37.02;99173.13;4490426;31;33411;-76
2023/07/21 15:57:40;;;;;;;6.72;2.35;;;;;;;29.34;37.67;99176.59;4482343;31;31985;-75
2023/07/21 16:00:14;;;;;;;5.60;2.60;;;;;;;29.23;38.26;99186.88;4481652;32;34151;-75
2023/07/21 16:02:44;;;;;;;8.68;2.42;;;;;;;29.25;37.79;99177.84;4479483;31;34212;-75
2023/07/21 16:05:13;;;;;;;6.37;2.25;;;;;;;29.11;38.01;99169.50;4482841;31;33301;-75
2023/07/21 16:07:42;;;;;;;8.55;2.55;;;;;;;29.54;36.98;99162.41;4483336;32;33036;-75
2023/07/21 16:10:11;;;;;;;3.95;2.28;;;;;;;29.12;37.48;99185.50;4482766;32;33171;-75
2023/07/21 16:12:39;;;;;;;6.43;2.47;;;;;;;29.02;37.51;99181.44;4456532;31;33591;-75
2023/07/21 16:15:08;;;;;;;5.10;2.30;;;;;;;28.73;38.45;99169.28;4483338;32;34328;-75
2023/07/21 16:17:37;;;;;;;4.37;2.50;;;;;;;28.65;38.47;99163.37;4483538;32;33555;-75
2023/07/21 16:20:06;;;;;;;5.25;2.40;;;;;;;28.82;38.71;99168.94;4483471;32;33850;-75
2023/07/21 16:22:40;;;;;;;4.37;2.20;;;;;;;29.06;38.21;99167.06;4470939;32;33309;-75
2023/07/21 16:25:09;;;;;;;6.78;2.40;;;;;;;28.94;38.29;99156.91;4482729;32;33450;-75
2023/07/21 16:27:37;;;;;;;4.15;2.17;;;;;;;28.61;38.82;99166.19;4468520;32;32964;-75
2023/07/21 16:30:05;;;;;;;4.60;2.30;;;;;;;28.62;38.50;99162.56;4469004;32;33144;-75
2023/07/21 16:32:33;;;;;;;3.92;2.05;;;;;;;28.28;39.49;99155.00;4483111;32;34270;-75
2023/07/21 16:35:02;;;;;;;4.85;2.30;;;;;;;28.41;38.69;99137.63;4483164;32;33597;-75
2023/07/21 16:37:30;;;;;;;4.82;2.10;;;;;;;28.67;37.27;99129.56;4483290;32;32935;-75
2023/07/21 16:40:00;;;;;;;4.22;2.20;;;;;;;28.31;38.79;99114.94;4482951;32;33897;-75
2023/07/21 16:42:31;;;;;;;4.82;2.28;;;;;;;28.12;38.82;99113.91;4483463;32;33716;-75
2023/07/21 16:45:01;;;;;;;5.07;2.22;;;;;;;28.31;38.82;99109.59;4482466;32;34539;-76
2023/07/21 16:47:30;;;;;;;5.20;2.50;;;;;;;28.17;39.39;99101.28;4468502;32;32412;-75
2023/07/21 16:49:58;;;;;;;4.65;2.33;;;;;;;28.10;40.03;99105.09;4482260;32;34064;-75
2023/07/21 16:52:27;;;;;;;4.87;2.60;;;;;;;28.18;39.83;99108.34;4488622;31;34142;-75
2023/07/21 16:54:55;;;;;;;4.75;2.12;;;;;;;27.86;40.54;99107.75;4470040;31;33296;-75
2023/07/21 16:57:24;;;;;;;4.97;2.28;;;;;;;28.03;40.38;99109.81;4497215;31;33681;-75
2023/07/21 16:59:52;;;;;;;5.93;2.40;;;;;;;27.73;40.63;99111.78;4492247;31;33574;-75
2023/07/21 17:02:25;;;;;;;4.12;2.12;;;;;;;28.12;39.67;99113.91;4469712;31;34289;-75
2023/07/21 17:04:54;;;;;;;5.15;2.30;;;;;;;27.77;40.93;99118.72;4482524;32;33462;-74
2023/07/21 17:07:22;;;;;;;4.68;2.25;;;;;;;27.60;41.67;99128.19;4468698;32;33370;-74
2023/07/21 17:09:50;;;;;;;5.20;2.50;;;;;;;27.71;42.46;99116.28;4481303;32;33460;-75
2023/07/21 17:12:19;;;;;;;9.43;2.60;;;;;;;27.83;43.21;99110.50;4469169;32;34236;-74
2023/07/21 17:14:48;;;;;;;10.18;2.78;;;;;;;27.68;43.99;99114.63;4481609;32;33818;-74
2023/07/21 17:17:17;;;;;;;7.75;2.85;;;;;;;27.34;45.87;99130.88;4481930;32;33048;-75
2023/07/21 17:19:46;;;;;;;7.47;2.58;;;;;;;27.06;47.49;99147.72;4471819;31;33899;-75
2023/07/21 17:22:15;;;;;;;7.55;2.83;;;;;;;27.66;45.35;99159.00;4483418;31;33518;-77
2023/07/21 17:24:45;;;;;;;4.93;2.53;;;;;;;27.90;46.57;99159.09;4452139;31;32165;-77
2023/07/21 17:27:14;;;;;;;5.95;2.90;;;;;;;27.75;47.90;99163.13;4482160;31;32559;-77
2023/07/21 17:29:43;;;;;;;5.57;3.10;;;;;;;27.37;49.52;99165.34;4493023;31;33478;-75
2023/07/21 17:32:12;;;;;;;6.43;3.12;;;;;;;26.77;50.66;99146.91;4497826;31;34589;-78
2023/07/21 17:34:40;;;;;;;5.90;3.20;;;;;;;27.00;50.16;99154.09;4483217;31;33616;-75
2023/07/21 17:37:07;;;;;;;7.28;3.08;;;;;;;26.63;51.92;99159.75;4490757;31;33029;-75
2023/07/21 17:39:38;;;;;;;6.47;3.10;;;;;;;26.42;52.55;99162.09;4491430;31;33536;-76
2023/07/21 17:42:08;;;;;;;6.47;3.10;;;;;;;26.06;54.61;99162.28;4480843;31;31580;-74
2023/07/21 17:44:36;;;;;;;6.90;3.40;;;;;;;26.07;54.82;99166.66;4498442;31;34327;-77
2023/07/21 17:47:04;;;;;;;6.23;3.63;;;;;;;25.89;56.33;99188.41;4513611;31;33215;-76
2023/07/21 17:49:32;;;;;;;7.00;3.53;;;;;;;25.91;56.74;99260.91;4514716;31;34507;-75
2023/07/21 17:52:02;;;;;;;6.68;3.60;;;;;;;26.19;55.79;99376.94;4489896;31;33743;-75
2023/07/21 17:54:30;;;;;;;6.32;3.50;;;;;;;26.01;56.46;99426.06;4482148;31;34092;-76
2023/07/21 17:56:59;;;;;;;7.87;3.62;;;;;;;25.60;56.59;99431.38;4488263;31;32670;-75
2023/07/21 17:59:27;;;;;;;13.23;4.30;;;;;;;24.96;57.54;99465.41;4484889;31;34380;-75
2023/07/21 18:01:55;;;;;;;11.27;4.50;;;;;;;24.71;60.42;99475.59;4487621;31;34388;-75
2023/07/21 18:04:24;;;;;;;8.77;4.07;;;;;;;24.82;61.33;99478.91;4488278;31;33362;-74
2023/07/21 18:06:52;;;;;;;9.87;4.70;;;;;;;24.67;61.80;99473.91;4486893;31;32817;-74
2023/07/21 18:09:21;;;;;;;8.68;4.10;;;;;;;24.63;61.72;99475.72;4485272;31;34547;-74
2023/07/21 18:11:53;;;;;;;8.45;4.47;;;;;;;24.42;62.33;99468.13;4477353;31;33171;-76
2023/07/21 18:14:21;;;;;;;8.13;4.20;;;;;;;24.28;63.33;99465.69;4498075;31;33750;-76
2023/07/21 18:16:50;;;;;;;8.90;4.10;;;;;;;24.92;61.50;99453.97;4491051;31;33768;-76
2023/07/21 18:19:19;;;;;;;9.90;4.20;;;;;;;25.18;60.77;99459.66;4486598;31;33698;-75
2023/07/21 18:21:47;;;;;;;8.32;4.00;;;;;;;25.30;60.29;99465.63;4477253;31;34002;-75
2023/07/21 18:24:16;;;;;;;10.23;4.25;;;;;;;24.93;60.85;99455.72;4488917;31;33533;-75
2023/07/21 18:26:44;;;;;;;8.15;3.72;;;;;;;25.14;60.52;99448.25;4495499;31;32858;-75
2023/07/21 18:29:12;;;;;;;8.52;4.07;;;;;;;25.35;59.61;99430.19;4490903;31;34111;-74
2023/07/21 18:31:40;;;;;;;11.68;4.45;;;;;;;25.59;58.86;99411.06;4483360;31;33477;-75
2023/07/21 18:34:08;;;;;;;10.98;4.00;;;;;;;25.23;60.15;99411.00;4484208;32;34135;-75
2023/07/21 18:36:36;;;;;;;6.85;3.75;;;;;;;25.43;59.65;99385.81;4483914;31;33144;-75
2023/07/21 18:39:05;;;;;;;7.90;4.10;;;;;;;26.09;57.46;99381.59;4468890;32;33166;-75
2023/07/21 18:41:34;;;;;;;8.75;3.80;;;;;;;25.88;57.96;99383.87;4484440;32;33641;-75
2023/07/21 18:44:02;;;;;;;8.88;4.07;;;;;;;25.38;59.78;99382.38;4484133;32;33268;-74
2023/07/21 18:46:31;;;;;;;7.82;3.72;;;;;;;25.02;61.36;99387.56;4511232;31;33898;-74
2023/07/21 18:49:02;;;;;;;6.68;3.50;;;;;;;25.14;61.14;99384.63;4502852;31;34408;-74
2023/07/21 18:51:32;;;;;;;6.47;4.00;;;;;;;25.71;59.05;99372.81;4493530;31;35003;-75
2023/07/21 18:54:00;;;;;;;7.53;3.80;;;;;;;26.05;57.97;99367.53;4496878;31;33154;-74
2023/07/21 18:56:30;;;;;;;6.20;3.60;;;;;;;25.64;59.03;99364.09;4498010;31;33433;-75
2023/07/21 18:58:58;;;;;;;6.55;3.33;;;;;;;25.09;60.71;99386.50;4499697;31;33616;-75
2023/07/21 19:01:30;;;;;;;7.18;3.97;;;;;;;24.75;61.96;99391.66;4499593;31;33725;-74
2023/07/21 19:03:58;;;;;;;8.10;3.80;;;;;;;24.37;63.52;99391.41;4499607;31;33490;-75
2023/07/21 19:06:27;;;;;;;6.57;3.30;;;;;;;24.46;63.39;99385.09;4498758;31;33566;-74
2023/07/21 19:08:57;;;;;;;6.53;3.37;;;;;;;24.14;64.75;99382.13;4484262;31;33320;-75
2023/07/21 19:11:26;;;;;;;7.07;3.60;;;;;;;24.28;64.33;99375.69;4494083;31;33346;-75
2023/07/21 19:13:54;;;;;;;6.85;3.60;;;;;;;24.35;64.22;99379.97;4487006;31;33586;-74
2023/07/21 19:16:25;;;;;;;7.13;3.30;;;;;;;24.47;63.79;99371.84;4488588;31;33273;-74
2023/07/21 19:18:53;;;;;;;9.30;3.60;;;;;;;24.29;64.66;99358.94;4486071;31;34093;-75
2023/07/21 19:21:21;;;;;;;6.93;3.33;;;;;;;24.30;64.62;99343.03;4479915;32;34699;-74
2023/07/21 19:23:49;;;;;;;6.22;3.53;;;;;;;24.60;63.39;99337.19;4467504;32;33575;-75
2023/07/21 19:26:20;;;;;;;7.55;3.50;;;;;;;24.72;63.04;99337.84;4481360;32;33182;-74
2023/07/21 19:28:50;;;;;;;9.13;3.55;;;;;;;24.46;63.70;99327.72;4481344;31;33578;-74
2023/07/21 19:31:19;;;;;;;6.00;3.28;;;;;;;24.51;63.68;99314.41;4487375;31;33673;-74
2023/07/21 19:33:47;;;;;;;6.57;3.50;;;;;;;24.57;63.30;99308.13;4468302;32;31597;-74
2023/07/21 19:36:16;;;;;;;6.40;3.40;;;;;;;24.48;63.37;99296.78;4483580;32;33602;-75
2023/07/21 19:38:44;;;;;;;6.80;3.42;;;;;;;24.46;63.57;99293.28;4483814;31;33571;-77
2023/07/21 19:41:13;;;;;;;6.80;3.83;;;;;;;24.25;64.10;99301.66;4487108;31;33444;-73
2023/07/21 19:43:42;;;;;;;6.32;3.40;;;;;;;24.52;63.14;99295.84;4477773;31;33217;-73
2023/07/21 19:46:13;;;;;;;7.43;3.90;;;;;;;24.28;64.15;99309.53;4494067;31;33298;-74
2023/07/21 19:48:42;;;;;;;8.38;4.10;;;;;;;24.35;64.59;99313.81;4489359;31;33727;-76
2023/07/21 19:51:11;;;;;;;6.45;3.78;;;;;;;24.55;63.72;99320.53;4499540;31;33395;-75
2023/07/21 19:53:41;;;;;;;7.30;4.20;;;;;;;24.07;65.79;99308.19;4497459;31;33648;-75
2023/07/21 19:56:15;;;;;;;7.22;4.45;;;;;;;24.07;65.77;99309.03;4494377;31;32235;-76
2023/07/21 19:58:44;;;;;;;9.60;4.10;;;;;;;23.85;66.89;99315.59;4492122;31;32991;-75
2023/07/21 20:01:11;;;;;;;9.23;4.22;;;;;;;23.54;68.24;99318.72;4485327;31;33155;-75
2023/07/21 20:03:39;;;;;;;8.68;3.90;;;;;;;23.44;68.28;99311.84;4491829;31;33712;-75
2023/07/21 20:06:09;;;;;;;7.55;3.80;;;;;;;23.62;67.24;99318.59;4459407;32;33245;-73
2023/07/21 20:08:36;;;;;;;6.90;3.63;;;;;;;23.79;67.21;99334.22;4468708;32;32053;-75
2023/07/21 20:11:04;;;;;;;7.80;3.75;;;;;;;23.75;67.44;99328.94;4467443;32;33580;-74
2023/07/21 20:13:32;;;;;;;6.80;3.90;;;;;;;23.70;67.38;99324.63;4467925;32;33480;-76
2023/07/21 20:15:59;;;;;;;7.60;4.13;;;;;;;23.80;66.99;99335.94;4467397;32;33249;-76
2023/07/21 20:18:27;;;;;;;6.93;3.93;;;;;;;23.94;66.87;99339.25;4467867;32;33450;-76
2023/07/21 20:20:54;;;;;;;6.87;3.70;;;;;;;23.75;67.46;99341.28;4466927;32;34098;-73
2023/07/21 20:23:22;;;;;;;7.30;3.87;;;;;;;23.92;66.96;99344.56;4458253;32;33351;-75
2023/07/21 20:25:49;;;;;;;6.50;3.67;;;;;;;23.94;66.85;99360.41;4465584;32;33415;-75
2023/07/21 20:28:17;;;;;;;6.55;3.70;;;;;;;23.88;66.98;99355.22;4458836;32;33843;-74
2023/07/21 20:30:44;;;;;;;6.62;3.90;;;;;;;24.15;66.14;99361.81;4462741;32;33956;-74
2023/07/21 20:33:15;;;;;;;6.78;3.53;;;;;;;24.29;65.51;99358.94;4470959;32;34437;-76
2023/07/21 20:35:43;;;;;;;5.80;3.58;;;;;;;24.43;64.90;99372.75;4457450;32;33881;-73
2023/07/21 20:38:12;;;;;;;6.83;3.70;;;;;;;24.67;64.04;99375.91;4457404;32;33640;-73
2023/07/21 20:40:40;;;;;;;6.97;3.30;;;;;;;25.47;61.30;99387.50;4461092;32;33849;-76
2023/07/21 20:43:08;;;;;;;7.25;3.75;;;;;;;25.68;60.21;99392.28;4451610;32;34364;-73
2023/07/21 20:45:37;;;;;;;6.57;3.95;;;;;;;25.59;60.17;99397.81;4466477;32;33037;-74
2023/07/21 20:48:05;;;;;;;6.37;3.80;;;;;;;25.80;59.56;99411.47;4463168;32;33242;-74
2023/07/21 20:50:33;;;;;;;6.45;3.50;;;;;;;25.47;60.06;99404.25;4470442;32;33686;-76
2023/07/21 20:53:01;;;;;;;8.32;3.35;;;;;;;25.52;59.99;99412.13;4468128;32;35180;-76
2023/07/21 20:55:29;;;;;;;5.97;3.30;;;;;;;25.76;59.26;99405.38;4465903;32;33362;-74
2023/07/21 20:57:57;;;;;;;6.72;3.47;;;;;;;25.58;59.46;99403.16;4462998;32;33850;-74
2023/07/21 21:00:24;;;;;;;5.95;3.15;;;;;;;25.39;59.91;99410.66;4466879;32;33684;-75
2023/07/21 21:02:52;;;;;;;5.55;3.20;;;;;;;25.67;58.84;99417.09;4456449;32;33947;-74
2023/07/21 21:05:20;;;;;;;5.62;3.00;;;;;;;25.86;57.80;99411.34;4465361;32;32867;-75
2023/07/21 21:07:47;;;;;;;5.30;3.00;;;;;;;25.90;57.24;99418.31;4471811;32;33570;-75
2023/07/21 21:10:15;;;;;;;5.40;3.10;;;;;;;25.59;57.84;99412.84;4474809;32;34399;-76
2023/07/21 21:12:42;;;;;;;5.78;3.08;;;;;;;25.60;58.10;99409.31;4481708;32;33937;-73
2023/07/21 21:15:10;;;;;;;5.70;3.00;;;;;;;25.59;58.12;99405.75;4470571;32;32814;-75
2023/07/21 21:17:38;;;;;;;6.37;3.12;;;;;;;25.22;59.11;99403.03;4468891;32;34558;-73
2023/07/21 21:20:06;;;;;;;5.32;3.05;;;;;;;25.51;58.15;99410.38;4475723;32;34560;-75
2023/07/21 21:22:33;;;;;;;6.20;3.28;;;;;;;25.54;58.04;99410.31;4480135;32;33535;-74
2023/07/21 21:25:01;;;;;;;6.17;3.20;;;;;;;25.06;59.62;99427.19;4471433;32;33923;-76
2023/07/21 21:27:29;;;;;;;5.18;2.90;;;;;;;25.13;59.71;99430.63;4468197;32;33336;-76
2023/07/21 21:29:56;;;;;;;5.62;2.83;;;;;;;25.43;58.39;99421.16;4476908;32;33644;-74
2023/07/21 21:32:24;;;;;;;5.15;2.83;;;;;;;25.53;57.88;99418.31;4473853;32;34415;-76
2023/07/21 21:34:51;;;;;;;5.10;3.00;;;;;;;25.33;58.44;99426.72;4464537;32;32407;-75
2023/07/21 21:37:20;;;;;;;5.47;2.93;;;;;;;25.07;59.66;99425.41;4470568;32;33221;-75
2023/07/21 21:39:47;;;;;;;5.20;2.87;;;;;;;24.90;60.27;99424.00;4472827;32;35104;-74
2023/07/21 21:42:15;;;;;;;5.57;3.05;;;;;;;25.28;59.07;99424.13;4471049;32;33201;-74
2023/07/21 21:44:42;;;;;;;5.37;3.00;;;;;;;24.66;61.01;99427.09;4477179;32;32795;-76
2023/07/21 21:47:10;;;;;;;5.82;3.05;;;;;;;24.73;60.84;99421.66;4478872;32;33557;-74